sensor_id;sensor_type;location;lat;lon;timestamp;temperature;humidity
4433;DHT22;2229;48.708;9.706;2023-02-28T00:01:27;-0.40;99.90
4433;DHT22;2229;48.708;9.706;2023-02-28T00:03:55;-0.60;98.60
4433;DHT22;2229;48.708;9.706;2023-02-28T00:06:22;-0.50;98.20
4433;DHT22;2229;48.708;9.706;2023-02-28T00:08:50;-0.70;96.10
4433;DHT22;2229;48.708;9.706;2023-02-28T00:11:17;-0.50;92.00
4433;DHT22;2229;48.708;9.706;2023-02-28T00:13:47;-0.70;91.10
4433;DHT22;2229;48.708;9.706;2023-02-28T00:16:17;-0.70;90.70
4433;DHT22;2229;48.708;9.706;2023-02-28T00:18:45;-0.60;90.50
4433;DHT22;2229;48.708;9.706;2023-02-28T00:21:14;-1.20;90.00
4433;DHT22;2229;48.708;9.706;2023-02-28T00:23:41;-0.60;90.10
4433;DHT22;2229;48.708;9.706;2023-02-28T00:26:08;-0.60;90.00
4433;DHT22;2229;48.708;9.706;2023-02-28T00:28:36;-0.70;89.60
4433;DHT22;2229;48.708;9.706;2023-02-28T00:31:05;-0.60;89.20
4433;DHT22;2229;48.708;9.706;2023-02-28T00:33:32;-0.50;89.50
4433;DHT22;2229;48.708;9.706;2023-02-28T00:36:05;-0.70;89.40
4433;DHT22;2229;48.708;9.706;2023-02-28T00:38:35;-0.50;89.70
4433;DHT22;2229;48.708;9.706;2023-02-28T00:41:02;-0.60;89.20
4433;DHT22;2229;48.708;9.706;2023-02-28T00:43:31;-0.70;88.90
4433;DHT22;2229;48.708;9.706;2023-02-28T00:45:59;-0.60;90.00
4433;DHT22;2229;48.708;9.706;2023-02-28T00:48:28;-0.70;89.50
4433;DHT22;2229;48.708;9.706;2023-02-28T00:50:55;-0.60;88.60
4433;DHT22;2229;48.708;9.706;2023-02-28T00:53:23;-0.60;88.90
4433;DHT22;2229;48.708;9.706;2023-02-28T00:55:51;-0.50;88.70
4433;DHT22;2229;48.708;9.706;2023-02-28T00:58:18;-0.60;89.30
4433;DHT22;2229;48.708;9.706;2023-02-28T01:00:45;-0.50;89.40
4433;DHT22;2229;48.708;9.706;2023-02-28T01:03:15;-0.20;89.50
4433;DHT22;2229;48.708;9.706;2023-02-28T01:05:45;-0.50;89.50
4433;DHT22;2229;48.708;9.706;2023-02-28T01:08:12;-0.90;89.30
4433;DHT22;2229;48.708;9.706;2023-02-28T01:10:41;-1.00;88.90
4433;DHT22;2229;48.708;9.706;2023-02-28T01:13:08;-0.50;89.90
4433;DHT22;2229;48.708;9.706;2023-02-28T01:15:37;-1.40;89.40
4433;DHT22;2229;48.708;9.706;2023-02-28T01:18:04;-1.10;89.90
4433;DHT22;2229;48.708;9.706;2023-02-28T01:20:32;-0.90;90.00
4433;DHT22;2229;48.708;9.706;2023-02-28T01:23:01;-1.00;90.20
4433;DHT22;2229;48.708;9.706;2023-02-28T01:25:28;-0.90;90.10
4433;DHT22;2229;48.708;9.706;2023-02-28T01:27:56;-0.90;90.30
4433;DHT22;2229;48.708;9.706;2023-02-28T01:30:23;-0.40;90.40
4433;DHT22;2229;48.708;9.706;2023-02-28T01:32:51;-0.80;90.10
4433;DHT22;2229;48.708;9.706;2023-02-28T01:35:19;-0.70;90.50
4433;DHT22;2229;48.708;9.706;2023-02-28T01:37:47;-0.30;90.70
4433;DHT22;2229;48.708;9.706;2023-02-28T01:40:17;-0.90;89.70
4433;DHT22;2229;48.708;9.706;2023-02-28T01:42:44;-0.80;90.40
4433;DHT22;2229;48.708;9.706;2023-02-28T01:45:22;-0.80;90.50
4433;DHT22;2229;48.708;9.706;2023-02-28T01:47:54;-0.90;90.70
4433;DHT22;2229;48.708;9.706;2023-02-28T01:50:25;-0.90;90.50
4433;DHT22;2229;48.708;9.706;2023-02-28T01:52:55;-1.00;90.50
4433;DHT22;2229;48.708;9.706;2023-02-28T01:55:27;-0.80;90.70
4433;DHT22;2229;48.708;9.706;2023-02-28T01:58:00;-1.20;90.60
4433;DHT22;2229;48.708;9.706;2023-02-28T02:00:29;-1.00;90.90
4433;DHT22;2229;48.708;9.706;2023-02-28T02:02:59;-1.00;90.70
4433;DHT22;2229;48.708;9.706;2023-02-28T02:05:29;-1.00;90.90
4433;DHT22;2229;48.708;9.706;2023-02-28T02:08:02;-0.50;91.10
4433;DHT22;2229;48.708;9.706;2023-02-28T02:10:34;-0.90;91.10
4433;DHT22;2229;48.708;9.706;2023-02-28T02:13:19;-1.00;91.10
4433;DHT22;2229;48.708;9.706;2023-02-28T02:15:58;-1.00;90.40
4433;DHT22;2229;48.708;9.706;2023-02-28T02:18:33;-0.80;91.30
4433;DHT22;2229;48.708;9.706;2023-02-28T02:21:29;-1.00;91.30
4433;DHT22;2229;48.708;9.706;2023-02-28T02:27:07;-0.80;91.40
4433;DHT22;2229;48.708;9.706;2023-02-28T02:30:00;-1.10;90.60
4433;DHT22;2229;48.708;9.706;2023-02-28T02:32:47;-1.00;90.70
4433;DHT22;2229;48.708;9.706;2023-02-28T02:35:22;-0.90;91.60
4433;DHT22;2229;48.708;9.706;2023-02-28T02:37:53;-0.90;91.40
4433;DHT22;2229;48.708;9.706;2023-02-28T02:40:27;-0.80;91.60
4433;DHT22;2229;48.708;9.706;2023-02-28T02:43:02;-1.10;91.40
4433;DHT22;2229;48.708;9.706;2023-02-28T02:45:33;-1.10;91.40
4433;DHT22;2229;48.708;9.706;2023-02-28T02:48:05;-1.30;91.40
4433;DHT22;2229;48.708;9.706;2023-02-28T02:50:37;-1.30;91.30
4433;DHT22;2229;48.708;9.706;2023-02-28T02:53:07;-1.10;91.40
4433;DHT22;2229;48.708;9.706;2023-02-28T02:55:40;-1.10;91.30
4433;DHT22;2229;48.708;9.706;2023-02-28T02:58:11;-1.10;91.80
4433;DHT22;2229;48.708;9.706;2023-02-28T03:00:43;-1.10;91.70
4433;DHT22;2229;48.708;9.706;2023-02-28T03:03:13;-1.10;91.70
4433;DHT22;2229;48.708;9.706;2023-02-28T03:05:46;-1.10;91.80
4433;DHT22;2229;48.708;9.706;2023-02-28T03:08:15;-1.00;92.00
4433;DHT22;2229;48.708;9.706;2023-02-28T03:10:45;-1.00;91.80
4433;DHT22;2229;48.708;9.706;2023-02-28T03:16:32;-1.10;91.10
4433;DHT22;2229;48.708;9.706;2023-02-28T03:19:12;-1.10;91.60
4433;DHT22;2229;48.708;9.706;2023-02-28T03:21:51;-1.20;92.50
4433;DHT22;2229;48.708;9.706;2023-02-28T03:24:29;-1.50;92.00
4433;DHT22;2229;48.708;9.706;2023-02-28T03:27:05;-1.10;92.10
4433;DHT22;2229;48.708;9.706;2023-02-28T03:29:35;-1.20;92.10
4433;DHT22;2229;48.708;9.706;2023-02-28T03:32:12;-1.00;92.20
4433;DHT22;2229;48.708;9.706;2023-02-28T03:34:48;-1.50;91.90
4433;DHT22;2229;48.708;9.706;2023-02-28T03:37:22;-0.70;92.30
4433;DHT22;2229;48.708;9.706;2023-02-28T03:39:53;-0.70;92.40
4433;DHT22;2229;48.708;9.706;2023-02-28T03:42:25;-0.90;92.40
4433;DHT22;2229;48.708;9.706;2023-02-28T03:44:56;-0.80;92.30
4433;DHT22;2229;48.708;9.706;2023-02-28T03:47:27;-0.90;92.30
4433;DHT22;2229;48.708;9.706;2023-02-28T03:49:59;-1.00;92.30
4433;DHT22;2229;48.708;9.706;2023-02-28T03:52:33;-0.90;92.40
4433;DHT22;2229;48.708;9.706;2023-02-28T03:55:04;-0.90;92.30
4433;DHT22;2229;48.708;9.706;2023-02-28T03:57:37;-1.00;92.20
4433;DHT22;2229;48.708;9.706;2023-02-28T04:00:07;-1.00;92.40
4433;DHT22;2229;48.708;9.706;2023-02-28T04:02:39;-1.00;92.10
4433;DHT22;2229;48.708;9.706;2023-02-28T04:05:07;-0.70;92.40
4433;DHT22;2229;48.708;9.706;2023-02-28T04:07:36;-1.00;92.10
4433;DHT22;2229;48.708;9.706;2023-02-28T04:10:05;-0.90;92.50
4433;DHT22;2229;48.708;9.706;2023-02-28T04:12:32;-0.90;92.30
4433;DHT22;2229;48.708;9.706;2023-02-28T04:14:59;-0.90;92.50
4433;DHT22;2229;48.708;9.706;2023-02-28T04:17:26;-0.90;92.50
4433;DHT22;2229;48.708;9.706;2023-02-28T04:19:54;-1.10;92.50
4433;DHT22;2229;48.708;9.706;2023-02-28T04:22:23;-1.00;92.50
4433;DHT22;2229;48.708;9.706;2023-02-28T04:24:54;-1.00;92.50
4433;DHT22;2229;48.708;9.706;2023-02-28T04:27:22;-0.90;92.50
4433;DHT22;2229;48.708;9.706;2023-02-28T04:29:49;-1.00;92.60
4433;DHT22;2229;48.708;9.706;2023-02-28T04:32:16;-1.00;92.40
4433;DHT22;2229;48.708;9.706;2023-02-28T04:34:44;-0.70;92.40
4433;DHT22;2229;48.708;9.706;2023-02-28T04:37:11;-1.00;92.50
4433;DHT22;2229;48.708;9.706;2023-02-28T04:39:39;-0.90;92.60
4433;DHT22;2229;48.708;9.706;2023-02-28T04:42:08;-0.90;92.70
4433;DHT22;2229;48.708;9.706;2023-02-28T04:44:35;-0.80;92.50
4433;DHT22;2229;48.708;9.706;2023-02-28T04:47:02;-0.80;92.60
4433;DHT22;2229;48.708;9.706;2023-02-28T04:49:30;-0.80;92.60
4433;DHT22;2229;48.708;9.706;2023-02-28T04:51:57;-1.20;92.50
4433;DHT22;2229;48.708;9.706;2023-02-28T04:54:24;-0.90;92.50
4433;DHT22;2229;48.708;9.706;2023-02-28T04:56:52;-0.90;92.40
4433;DHT22;2229;48.708;9.706;2023-02-28T04:59:21;-0.60;92.60
4433;DHT22;2229;48.708;9.706;2023-02-28T05:01:49;-1.00;92.40
4433;DHT22;2229;48.708;9.706;2023-02-28T05:04:16;-0.80;92.40
4433;DHT22;2229;48.708;9.706;2023-02-28T05:06:44;-0.80;92.30
4433;DHT22;2229;48.708;9.706;2023-02-28T05:09:11;-0.80;92.40
4433;DHT22;2229;48.708;9.706;2023-02-28T05:11:39;-0.50;92.40
4433;DHT22;2229;48.708;9.706;2023-02-28T05:14:10;-0.90;92.20
4433;DHT22;2229;48.708;9.706;2023-02-28T05:16:39;-0.70;92.20
4433;DHT22;2229;48.708;9.706;2023-02-28T05:19:06;-0.70;92.30
4433;DHT22;2229;48.708;9.706;2023-02-28T05:21:34;-0.70;92.40
4433;DHT22;2229;48.708;9.706;2023-02-28T05:24:04;-0.70;92.30
4433;DHT22;2229;48.708;9.706;2023-02-28T05:26:34;-0.80;92.00
4433;DHT22;2229;48.708;9.706;2023-02-28T05:29:02;-0.60;92.30
4433;DHT22;2229;48.708;9.706;2023-02-28T05:31:29;-0.70;92.20
4433;DHT22;2229;48.708;9.706;2023-02-28T05:33:57;-0.50;92.10
4433;DHT22;2229;48.708;9.706;2023-02-28T05:36:25;-0.70;92.00
4433;DHT22;2229;48.708;9.706;2023-02-28T05:38:54;-1.30;91.40
4433;DHT22;2229;48.708;9.706;2023-02-28T05:41:21;-0.30;92.10
4433;DHT22;2229;48.708;9.706;2023-02-28T05:43:49;-0.70;91.80
4433;DHT22;2229;48.708;9.706;2023-02-28T05:46:17;-0.70;91.50
4433;DHT22;2229;48.708;9.706;2023-02-28T05:48:47;-0.50;91.80
4433;DHT22;2229;48.708;9.706;2023-02-28T05:51:16;-0.50;91.80
4433;DHT22;2229;48.708;9.706;2023-02-28T05:53:43;-0.70;92.00
4433;DHT22;2229;48.708;9.706;2023-02-28T05:56:11;-0.50;91.60
4433;DHT22;2229;48.708;9.706;2023-02-28T05:58:38;-0.50;91.60
4433;DHT22;2229;48.708;9.706;2023-02-28T06:01:22;-0.20;91.60
4433;DHT22;2229;48.708;9.706;2023-02-28T06:03:50;-0.60;91.70
4433;DHT22;2229;48.708;9.706;2023-02-28T06:06:19;-0.50;91.60
4433;DHT22;2229;48.708;9.706;2023-02-28T06:08:46;-0.60;91.60
4433;DHT22;2229;48.708;9.706;2023-02-28T06:11:14;-0.40;91.60
4433;DHT22;2229;48.708;9.706;2023-02-28T06:13:41;-0.40;91.60
4433;DHT22;2229;48.708;9.706;2023-02-28T06:16:10;-0.50;91.00
4433;DHT22;2229;48.708;9.706;2023-02-28T06:18:37;0.40;91.90
4433;DHT22;2229;48.708;9.706;2023-02-28T06:21:04;-0.40;91.20
4433;DHT22;2229;48.708;9.706;2023-02-28T06:23:33;-0.30;91.20
4433;DHT22;2229;48.708;9.706;2023-02-28T06:26:00;-0.40;91.20
4433;DHT22;2229;48.708;9.706;2023-02-28T06:28:27;-0.30;91.10
4433;DHT22;2229;48.708;9.706;2023-02-28T06:30:55;-0.20;91.20
4433;DHT22;2229;48.708;9.706;2023-02-28T06:33:22;-0.30;91.00
4433;DHT22;2229;48.708;9.706;2023-02-28T06:35:51;-0.60;90.70
4433;DHT22;2229;48.708;9.706;2023-02-28T06:38:18;-0.50;90.80
4433;DHT22;2229;48.708;9.706;2023-02-28T06:40:54;-1.00;90.20
4433;DHT22;2229;48.708;9.706;2023-02-28T06:43:22;-0.30;90.90
4433;DHT22;2229;48.708;9.706;2023-02-28T06:45:50;-0.30;90.80
4433;DHT22;2229;48.708;9.706;2023-02-28T06:48:17;-0.20;90.70
4433;DHT22;2229;48.708;9.706;2023-02-28T06:50:45;-0.20;90.50
4433;DHT22;2229;48.708;9.706;2023-02-28T06:53:12;-0.20;90.50
4433;DHT22;2229;48.708;9.706;2023-02-28T06:55:40;-0.30;90.40
4433;DHT22;2229;48.708;9.706;2023-02-28T06:58:09;-0.20;90.50
4433;DHT22;2229;48.708;9.706;2023-02-28T07:00:40;-0.20;90.40
4433;DHT22;2229;48.708;9.706;2023-02-28T07:03:08;-0.20;90.30
4433;DHT22;2229;48.708;9.706;2023-02-28T07:05:35;-0.10;90.30
4433;DHT22;2229;48.708;9.706;2023-02-28T07:08:03;-0.10;90.20
4433;DHT22;2229;48.708;9.706;2023-02-28T07:10:32;-0.10;90.10
4433;DHT22;2229;48.708;9.706;2023-02-28T07:13:00;-0.10;90.10
4433;DHT22;2229;48.708;9.706;2023-02-28T07:15:29;-0.20;90.00
4433;DHT22;2229;48.708;9.706;2023-02-28T07:17:56;-0.40;89.90
4433;DHT22;2229;48.708;9.706;2023-02-28T07:20:24;-0.10;90.10
4433;DHT22;2229;48.708;9.706;2023-02-28T07:22:51;-0.20;90.00
4433;DHT22;2229;48.708;9.706;2023-02-28T07:25:22;0.00;90.00
4433;DHT22;2229;48.708;9.706;2023-02-28T07:27:50;-0.10;89.60
4433;DHT22;2229;48.708;9.706;2023-02-28T07:30:18;0.00;89.70
4433;DHT22;2229;48.708;9.706;2023-02-28T07:32:46;-0.10;89.50
4433;DHT22;2229;48.708;9.706;2023-02-28T07:35:14;-0.20;89.70
4433;DHT22;2229;48.708;9.706;2023-02-28T07:37:42;0.30;89.50
4433;DHT22;2229;48.708;9.706;2023-02-28T07:40:11;0.60;90.00
4433;DHT22;2229;48.708;9.706;2023-02-28T07:42:39;-0.10;88.90
4433;DHT22;2229;48.708;9.706;2023-02-28T07:45:09;-0.10;89.10
4433;DHT22;2229;48.708;9.706;2023-02-28T07:47:37;-0.60;88.00
4433;DHT22;2229;48.708;9.706;2023-02-28T07:50:08;-0.20;88.80
4433;DHT22;2229;48.708;9.706;2023-02-28T07:52:36;-0.20;88.90
4433;DHT22;2229;48.708;9.706;2023-02-28T07:55:05;-0.10;89.30
4433;DHT22;2229;48.708;9.706;2023-02-28T07:57:32;-0.10;88.90
4433;DHT22;2229;48.708;9.706;2023-02-28T08:00:00;-0.10;89.40
4433;DHT22;2229;48.708;9.706;2023-02-28T08:02:37;-0.10;89.10
4433;DHT22;2229;48.708;9.706;2023-02-28T08:05:07;0.00;89.10
4433;DHT22;2229;48.708;9.706;2023-02-28T08:07:35;-0.10;88.70
4433;DHT22;2229;48.708;9.706;2023-02-28T08:10:02;0.10;89.20
4433;DHT22;2229;48.708;9.706;2023-02-28T08:12:32;-0.10;88.80
4433;DHT22;2229;48.708;9.706;2023-02-28T08:14:59;-0.10;88.60
4433;DHT22;2229;48.708;9.706;2023-02-28T08:17:26;0.70;89.50
4433;DHT22;2229;48.708;9.706;2023-02-28T08:19:53;0.10;88.80
4433;DHT22;2229;48.708;9.706;2023-02-28T08:22:22;0.20;88.80
4433;DHT22;2229;48.708;9.706;2023-02-28T08:24:49;0.10;88.30
4433;DHT22;2229;48.708;9.706;2023-02-28T08:27:16;0.30;88.40
4433;DHT22;2229;48.708;9.706;2023-02-28T08:29:43;0.30;88.30
4433;DHT22;2229;48.708;9.706;2023-02-28T08:32:11;0.20;87.90
4433;DHT22;2229;48.708;9.706;2023-02-28T08:34:39;0.30;87.70
4433;DHT22;2229;48.708;9.706;2023-02-28T08:37:07;0.30;88.00
4433;DHT22;2229;48.708;9.706;2023-02-28T08:39:36;0.40;87.70
4433;DHT22;2229;48.708;9.706;2023-02-28T08:42:03;0.40;88.20
4433;DHT22;2229;48.708;9.706;2023-02-28T08:44:31;0.40;87.30
4433;DHT22;2229;48.708;9.706;2023-02-28T08:46:59;0.40;86.90
4433;DHT22;2229;48.708;9.706;2023-02-28T08:49:26;0.50;87.30
4433;DHT22;2229;48.708;9.706;2023-02-28T08:51:54;0.40;87.00
4433;DHT22;2229;48.708;9.706;2023-02-28T08:54:23;0.50;86.80
4433;DHT22;2229;48.708;9.706;2023-02-28T08:56:51;0.50;86.30
4433;DHT22;2229;48.708;9.706;2023-02-28T08:59:18;0.70;87.00
4433;DHT22;2229;48.708;9.706;2023-02-28T09:01:46;0.60;86.20
4433;DHT22;2229;48.708;9.706;2023-02-28T09:04:14;0.60;85.70
4433;DHT22;2229;48.708;9.706;2023-02-28T09:06:42;0.70;86.90
4433;DHT22;2229;48.708;9.706;2023-02-28T09:09:10;0.60;84.90
4433;DHT22;2229;48.708;9.706;2023-02-28T09:11:37;0.80;85.80
4433;DHT22;2229;48.708;9.706;2023-02-28T09:14:06;0.80;85.70
4433;DHT22;2229;48.708;9.706;2023-02-28T09:16:34;1.10;86.00
4433;DHT22;2229;48.708;9.706;2023-02-28T09:19:01;1.00;85.90
4433;DHT22;2229;48.708;9.706;2023-02-28T09:21:28;0.90;85.50
4433;DHT22;2229;48.708;9.706;2023-02-28T09:23:55;1.00;85.50
4433;DHT22;2229;48.708;9.706;2023-02-28T09:26:25;1.00;85.40
4433;DHT22;2229;48.708;9.706;2023-02-28T09:28:53;1.50;85.60
4433;DHT22;2229;48.708;9.706;2023-02-28T09:31:23;1.60;84.90
4433;DHT22;2229;48.708;9.706;2023-02-28T09:33:52;1.10;83.70
4433;DHT22;2229;48.708;9.706;2023-02-28T09:36:21;1.70;83.70
4433;DHT22;2229;48.708;9.706;2023-02-28T09:38:49;1.50;83.60
4433;DHT22;2229;48.708;9.706;2023-02-28T09:41:19;1.90;83.40
4433;DHT22;2229;48.708;9.706;2023-02-28T09:43:50;2.00;83.10
4433;DHT22;2229;48.708;9.706;2023-02-28T09:46:28;1.90;82.80
4433;DHT22;2229;48.708;9.706;2023-02-28T09:48:59;2.10;83.20
4433;DHT22;2229;48.708;9.706;2023-02-28T09:51:37;2.10;82.60
4433;DHT22;2229;48.708;9.706;2023-02-28T09:54:11;2.00;82.30
4433;DHT22;2229;48.708;9.706;2023-02-28T09:56:44;1.90;82.20
4433;DHT22;2229;48.708;9.706;2023-02-28T09:59:17;2.30;82.70
4433;DHT22;2229;48.708;9.706;2023-02-28T10:01:56;2.10;82.40
4433;DHT22;2229;48.708;9.706;2023-02-28T10:04:37;2.10;82.10
4433;DHT22;2229;48.708;9.706;2023-02-28T10:07:14;2.20;81.80
4433;DHT22;2229;48.708;9.706;2023-02-28T10:09:47;2.30;82.30
4433;DHT22;2229;48.708;9.706;2023-02-28T10:12:20;2.20;82.10
4433;DHT22;2229;48.708;9.706;2023-02-28T10:14:50;2.30;81.60
4433;DHT22;2229;48.708;9.706;2023-02-28T10:17:23;2.70;81.70
4433;DHT22;2229;48.708;9.706;2023-02-28T10:19:58;2.70;81.10
4433;DHT22;2229;48.708;9.706;2023-02-28T10:22:30;3.10;80.80
4433;DHT22;2229;48.708;9.706;2023-02-28T10:25:00;3.20;80.30
4433;DHT22;2229;48.708;9.706;2023-02-28T10:27:30;3.40;80.00
4433;DHT22;2229;48.708;9.706;2023-02-28T10:29:59;3.40;79.20
4433;DHT22;2229;48.708;9.706;2023-02-28T10:32:32;3.40;78.80
4433;DHT22;2229;48.708;9.706;2023-02-28T10:35:03;3.40;78.50
4433;DHT22;2229;48.708;9.706;2023-02-28T10:37:33;3.60;78.60
4433;DHT22;2229;48.708;9.706;2023-02-28T10:40:05;3.80;78.10
4433;DHT22;2229;48.708;9.706;2023-02-28T10:42:34;4.00;76.80
4433;DHT22;2229;48.708;9.706;2023-02-28T10:45:10;4.10;76.30
4433;DHT22;2229;48.708;9.706;2023-02-28T10:47:49;4.30;75.50
4433;DHT22;2229;48.708;9.706;2023-02-28T10:50:30;5.40;75.60
4433;DHT22;2229;48.708;9.706;2023-02-28T10:53:16;6.30;73.90
4433;DHT22;2229;48.708;9.706;2023-02-28T10:55:44;7.00;70.30
4433;DHT22;2229;48.708;9.706;2023-02-28T10:58:21;7.70;69.40
4433;DHT22;2229;48.708;9.706;2023-02-28T11:00:49;8.10;67.90
4433;DHT22;2229;48.708;9.706;2023-02-28T11:03:30;8.40;66.50
4433;DHT22;2229;48.708;9.706;2023-02-28T11:06:03;8.80;66.40
4433;DHT22;2229;48.708;9.706;2023-02-28T11:08:31;9.00;65.60
4433;DHT22;2229;48.708;9.706;2023-02-28T11:11:04;9.50;64.10
4433;DHT22;2229;48.708;9.706;2023-02-28T11:13:33;10.00;61.50
4433;DHT22;2229;48.708;9.706;2023-02-28T11:16:03;10.10;60.10
4433;DHT22;2229;48.708;9.706;2023-02-28T11:18:37;9.20;61.80
4433;DHT22;2229;48.708;9.706;2023-02-28T11:21:08;8.90;62.40
4433;DHT22;2229;48.708;9.706;2023-02-28T11:23:40;8.50;62.90
4433;DHT22;2229;48.708;9.706;2023-02-28T11:26:08;8.40;64.00
4433;DHT22;2229;48.708;9.706;2023-02-28T11:28:39;8.40;64.50
4433;DHT22;2229;48.708;9.706;2023-02-28T11:31:16;8.20;64.90
4433;DHT22;2229;48.708;9.706;2023-02-28T11:33:48;8.00;64.30
4433;DHT22;2229;48.708;9.706;2023-02-28T11:36:19;7.90;64.70
4433;DHT22;2229;48.708;9.706;2023-02-28T11:38:48;8.20;65.20
4433;DHT22;2229;48.708;9.706;2023-02-28T11:41:31;8.30;65.60
4433;DHT22;2229;48.708;9.706;2023-02-28T11:44:17;8.30;65.60
4433;DHT22;2229;48.708;9.706;2023-02-28T11:46:50;8.20;63.70
4433;DHT22;2229;48.708;9.706;2023-02-28T11:49:32;8.40;65.40
4433;DHT22;2229;48.708;9.706;2023-02-28T11:52:06;8.60;65.60
4433;DHT22;2229;48.708;9.706;2023-02-28T11:54:58;8.30;65.40
4433;DHT22;2229;48.708;9.706;2023-02-28T11:57:35;8.20;65.20
4433;DHT22;2229;48.708;9.706;2023-02-28T12:00:15;8.20;65.40
4433;DHT22;2229;48.708;9.706;2023-02-28T12:02:59;8.20;65.70
4433;DHT22;2229;48.708;9.706;2023-02-28T12:05:38;8.10;65.80
4433;DHT22;2229;48.708;9.706;2023-02-28T12:08:20;8.30;65.70
4433;DHT22;2229;48.708;9.706;2023-02-28T12:11:01;7.70;66.00
4433;DHT22;2229;48.708;9.706;2023-02-28T12:13:41;8.40;66.20
4433;DHT22;2229;48.708;9.706;2023-02-28T12:16:26;8.30;65.20
4433;DHT22;2229;48.708;9.706;2023-02-28T12:19:19;8.40;64.00
4433;DHT22;2229;48.708;9.706;2023-02-28T12:22:15;8.30;64.10
4433;DHT22;2229;48.708;9.706;2023-02-28T12:27:34;8.10;65.50
4433;DHT22;2229;48.708;9.706;2023-02-28T12:30:12;8.10;66.00
4433;DHT22;2229;48.708;9.706;2023-02-28T12:32:43;8.20;65.90
4433;DHT22;2229;48.708;9.706;2023-02-28T12:35:13;8.30;66.50
4433;DHT22;2229;48.708;9.706;2023-02-28T12:37:46;8.30;65.60
4433;DHT22;2229;48.708;9.706;2023-02-28T12:40:17;8.20;65.30
4433;DHT22;2229;48.708;9.706;2023-02-28T12:42:49;8.20;65.30
4433;DHT22;2229;48.708;9.706;2023-02-28T12:45:20;8.20;65.60
4433;DHT22;2229;48.708;9.706;2023-02-28T12:47:50;8.30;65.30
4433;DHT22;2229;48.708;9.706;2023-02-28T12:50:19;8.30;64.30
4433;DHT22;2229;48.708;9.706;2023-02-28T12:52:55;8.30;64.40
4433;DHT22;2229;48.708;9.706;2023-02-28T12:55:33;8.40;65.30
4433;DHT22;2229;48.708;9.706;2023-02-28T12:58:09;8.20;65.00
4433;DHT22;2229;48.708;9.706;2023-02-28T13:00:46;8.50;65.60
4433;DHT22;2229;48.708;9.706;2023-02-28T13:03:37;8.50;65.90
4433;DHT22;2229;48.708;9.706;2023-02-28T13:06:23;8.10;63.70
4433;DHT22;2229;48.708;9.706;2023-02-28T13:09:02;8.50;65.10
4433;DHT22;2229;48.708;9.706;2023-02-28T13:11:33;8.40;64.80
4433;DHT22;2229;48.708;9.706;2023-02-28T13:14:02;8.50;64.90
4433;DHT22;2229;48.708;9.706;2023-02-28T13:16:47;8.70;64.90
4433;DHT22;2229;48.708;9.706;2023-02-28T13:19:18;8.70;65.40
4433;DHT22;2229;48.708;9.706;2023-02-28T13:21:47;8.70;64.80
4433;DHT22;2229;48.708;9.706;2023-02-28T13:24:41;8.50;65.70
4433;DHT22;2229;48.708;9.706;2023-02-28T13:27:24;8.20;64.40
4433;DHT22;2229;48.708;9.706;2023-02-28T13:29:58;8.30;64.30
4433;DHT22;2229;48.708;9.706;2023-02-28T13:32:35;8.30;65.30
4433;DHT22;2229;48.708;9.706;2023-02-28T13:38:17;8.20;65.50
4433;DHT22;2229;48.708;9.706;2023-02-28T13:40:46;8.10;65.90
4433;DHT22;2229;48.708;9.706;2023-02-28T13:43:16;8.00;66.30
4433;DHT22;2229;48.708;9.706;2023-02-28T13:46:06;8.00;66.60
4433;DHT22;2229;48.708;9.706;2023-02-28T13:48:35;8.00;64.90
4433;DHT22;2229;48.708;9.706;2023-02-28T13:51:27;8.10;65.80
4433;DHT22;2229;48.708;9.706;2023-02-28T13:54:00;8.10;64.50
4433;DHT22;2229;48.708;9.706;2023-02-28T13:56:42;7.90;66.20
4433;DHT22;2229;48.708;9.706;2023-02-28T13:59:22;8.10;66.50
4433;DHT22;2229;48.708;9.706;2023-02-28T14:02:17;7.80;66.10
4433;DHT22;2229;48.708;9.706;2023-02-28T14:05:00;8.00;65.20
4433;DHT22;2229;48.708;9.706;2023-02-28T14:07:30;7.80;66.70
4433;DHT22;2229;48.708;9.706;2023-02-28T14:10:02;8.10;66.80
4433;DHT22;2229;48.708;9.706;2023-02-28T14:12:53;7.90;66.60
4433;DHT22;2229;48.708;9.706;2023-02-28T14:15:49;8.10;66.20
4433;DHT22;2229;48.708;9.706;2023-02-28T14:18:25;8.00;64.20
4433;DHT22;2229;48.708;9.706;2023-02-28T14:20:57;7.90;65.20
4433;DHT22;2229;48.708;9.706;2023-02-28T14:23:46;8.10;64.90
4433;DHT22;2229;48.708;9.706;2023-02-28T14:26:29;7.80;63.70
4433;DHT22;2229;48.708;9.706;2023-02-28T14:29:14;7.90;66.60
4433;DHT22;2229;48.708;9.706;2023-02-28T14:31:48;8.00;67.50
4433;DHT22;2229;48.708;9.706;2023-02-28T14:34:31;8.00;66.30
4433;DHT22;2229;48.708;9.706;2023-02-28T14:37:03;7.80;66.20
4433;DHT22;2229;48.708;9.706;2023-02-28T14:39:33;8.00;66.30
4433;DHT22;2229;48.708;9.706;2023-02-28T14:42:02;7.90;66.90
4433;DHT22;2229;48.708;9.706;2023-02-28T14:44:32;7.70;67.10
4433;DHT22;2229;48.708;9.706;2023-02-28T14:47:01;8.00;67.10
4433;DHT22;2229;48.708;9.706;2023-02-28T14:49:34;7.70;67.10
4433;DHT22;2229;48.708;9.706;2023-02-28T14:52:06;7.80;67.40
4433;DHT22;2229;48.708;9.706;2023-02-28T14:54:35;7.80;67.30
4433;DHT22;2229;48.708;9.706;2023-02-28T14:57:03;7.30;67.60
4433;DHT22;2229;48.708;9.706;2023-02-28T14:59:34;7.60;67.80
4433;DHT22;2229;48.708;9.706;2023-02-28T15:02:16;7.30;68.20
4433;DHT22;2229;48.708;9.706;2023-02-28T15:04:52;7.50;68.50
4433;DHT22;2229;48.708;9.706;2023-02-28T15:07:20;7.30;68.10
4433;DHT22;2229;48.708;9.706;2023-02-28T15:10:12;7.20;68.60
4433;DHT22;2229;48.708;9.706;2023-02-28T15:12:41;7.50;69.70
4433;DHT22;2229;48.708;9.706;2023-02-28T15:15:17;7.20;69.00
4433;DHT22;2229;48.708;9.706;2023-02-28T15:17:46;7.10;69.30
4433;DHT22;2229;48.708;9.706;2023-02-28T15:20:16;7.30;70.00
4433;DHT22;2229;48.708;9.706;2023-02-28T15:22:46;6.80;68.70
4433;DHT22;2229;48.708;9.706;2023-02-28T15:25:17;7.10;69.30
4433;DHT22;2229;48.708;9.706;2023-02-28T15:27:48;7.20;69.70
4433;DHT22;2229;48.708;9.706;2023-02-28T15:30:20;6.80;70.10
4433;DHT22;2229;48.708;9.706;2023-02-28T15:33:06;6.70;70.00
4433;DHT22;2229;48.708;9.706;2023-02-28T15:35:38;6.70;70.30
4433;DHT22;2229;48.708;9.706;2023-02-28T15:38:15;6.30;70.10
4433;DHT22;2229;48.708;9.706;2023-02-28T15:40:44;6.30;70.50
4433;DHT22;2229;48.708;9.706;2023-02-28T15:43:16;6.60;71.00
4433;DHT22;2229;48.708;9.706;2023-02-28T15:45:47;6.50;71.00
4433;DHT22;2229;48.708;9.706;2023-02-28T15:48:19;6.30;71.20
4433;DHT22;2229;48.708;9.706;2023-02-28T15:50:49;6.10;70.70
4433;DHT22;2229;48.708;9.706;2023-02-28T15:53:19;6.00;71.50
4433;DHT22;2229;48.708;9.706;2023-02-28T15:55:54;6.10;71.50
4433;DHT22;2229;48.708;9.706;2023-02-28T15:58:22;6.20;72.10
4433;DHT22;2229;48.708;9.706;2023-02-28T16:01:21;6.10;72.60
4433;DHT22;2229;48.708;9.706;2023-02-28T16:03:53;5.90;73.50
4433;DHT22;2229;48.708;9.706;2023-02-28T16:06:33;5.50;72.50
4433;DHT22;2229;48.708;9.706;2023-02-28T16:09:01;5.50;72.90
4433;DHT22;2229;48.708;9.706;2023-02-28T16:11:28;5.50;73.00
4433;DHT22;2229;48.708;9.706;2023-02-28T16:13:57;5.20;72.90
4433;DHT22;2229;48.708;9.706;2023-02-28T16:16:26;5.20;73.20
4433;DHT22;2229;48.708;9.706;2023-02-28T16:18:53;5.10;73.30
4433;DHT22;2229;48.708;9.706;2023-02-28T16:21:21;5.00;73.60
4433;DHT22;2229;48.708;9.706;2023-02-28T16:23:49;5.00;73.20
4433;DHT22;2229;48.708;9.706;2023-02-28T16:26:21;5.20;74.30
4433;DHT22;2229;48.708;9.706;2023-02-28T16:28:49;5.00;74.40
4433;DHT22;2229;48.708;9.706;2023-02-28T16:31:17;4.90;74.60
4433;DHT22;2229;48.708;9.706;2023-02-28T16:33:46;5.00;75.00
4433;DHT22;2229;48.708;9.706;2023-02-28T16:36:15;4.80;74.90
4433;DHT22;2229;48.708;9.706;2023-02-28T16:38:43;4.80;75.10
4433;DHT22;2229;48.708;9.706;2023-02-28T16:41:13;4.90;75.80
4433;DHT22;2229;48.708;9.706;2023-02-28T16:43:46;4.50;75.90
4433;DHT22;2229;48.708;9.706;2023-02-28T16:46:15;4.60;76.10
4433;DHT22;2229;48.708;9.706;2023-02-28T16:48:45;4.30;76.10
4433;DHT22;2229;48.708;9.706;2023-02-28T16:51:15;4.80;77.20